createdAt,value
2022-08-12T00:00:40.616Z,17.10
2022-08-12T00:03:26.180Z,17.10
2022-08-12T00:06:11.486Z,17.10
2022-08-12T00:08:57.406Z,17.10
2022-08-12T00:11:43.917Z,17.00
2022-08-12T00:14:29.297Z,17.00
2022-08-12T00:17:14.756Z,17.00
2022-08-12T00:20:00.370Z,17.10
2022-08-12T00:22:46.636Z,17.00
2022-08-12T00:26:20.560Z,16.90
2022-08-12T00:29:00.078Z,16.90
2022-08-12T00:31:45.300Z,16.80
2022-08-12T00:34:34.365Z,16.80
2022-08-12T00:37:19.895Z,16.80
2022-08-12T00:40:11.027Z,16.70
2022-08-12T00:42:39.975Z,16.70
2022-08-12T00:45:07.252Z,16.60
2022-08-12T00:47:34.370Z,16.70
2022-08-12T00:50:01.125Z,16.70
2022-08-12T00:52:27.928Z,16.60
2022-08-12T00:54:57.515Z,16.60
2022-08-12T00:57:29.822Z,16.50
2022-08-12T00:59:58.635Z,16.40
2022-08-12T01:02:36.501Z,16.30
2022-08-12T01:05:24.552Z,16.30
2022-08-12T01:08:09.737Z,16.20
2022-08-12T01:11:02.119Z,16.20
2022-08-12T01:13:29.979Z,16.20
2022-08-12T01:15:58.664Z,16.20
2022-08-12T01:18:36.946Z,16.20
2022-08-12T01:21:07.035Z,16.20
2022-08-12T01:23:59.652Z,16.10
2022-08-12T01:26:46.894Z,16.10
2022-08-12T01:29:15.998Z,16.10
2022-08-12T01:31:42.773Z,16.10
2022-08-12T01:34:28.565Z,16.10
2022-08-12T01:37:00.845Z,16.10
2022-08-12T01:40:35.602Z,16.10
2022-08-12T01:42:44.490Z,16.10
2022-08-12T01:45:12.448Z,16.10
2022-08-12T01:48:03.774Z,16.10
2022-08-12T01:50:47.531Z,16.10
2022-08-12T01:53:15.947Z,16.10
2022-08-12T01:55:45.398Z,16.00
2022-08-12T01:58:21.115Z,16.00
2022-08-12T02:00:59.181Z,16.00
2022-08-12T02:04:09.461Z,15.90
2022-08-12T02:07:05.103Z,15.90
2022-08-12T02:10:10.388Z,15.80
2022-08-12T02:13:43.837Z,15.80
2022-08-12T02:16:23.596Z,15.80
2022-08-12T02:19:28.903Z,15.80
2022-08-12T02:22:18.017Z,15.80
2022-08-12T02:24:45.716Z,15.70
2022-08-12T02:27:13.680Z,15.70
2022-08-12T02:29:40.767Z,15.70
2022-08-12T02:32:08.365Z,15.70
2022-08-12T02:34:35.206Z,15.70
2022-08-12T02:37:02.527Z,15.60
2022-08-12T02:39:31.138Z,15.60
2022-08-12T02:42:02.605Z,15.60
2022-08-12T02:44:30.387Z,15.50
2022-08-12T02:46:57.680Z,15.50
2022-08-12T02:49:32.223Z,15.50
2022-08-12T02:52:00.216Z,15.50
2022-08-12T02:54:27.144Z,15.50
2022-08-12T02:56:55.206Z,15.50
2022-08-12T02:59:23.180Z,15.50
2022-08-12T03:01:55.061Z,15.50
2022-08-12T03:04:40.155Z,15.50
2022-08-12T03:07:20.968Z,15.50
2022-08-12T03:10:16.140Z,15.40
2022-08-12T03:12:49.010Z,15.40
2022-08-12T03:15:17.641Z,15.30
2022-08-12T03:18:23.593Z,15.30
2022-08-12T03:20:40.313Z,15.30
2022-08-12T03:23:27.390Z,15.20
2022-08-12T03:25:58.963Z,15.10
2022-08-12T03:28:44.745Z,15.10
2022-08-12T03:31:11.557Z,15.00
2022-08-12T03:33:39.920Z,15.00
2022-08-12T03:36:08.126Z,15.00
2022-08-12T03:38:37.356Z,15.00
2022-08-12T03:41:34.111Z,15.00
2022-08-12T03:44:28.265Z,15.00
2022-08-12T03:47:24.971Z,15.00
2022-08-12T03:50:10.008Z,14.90
2022-08-12T03:52:55.235Z,14.90
2022-08-12T03:55:40.744Z,14.80
2022-08-12T03:58:26.503Z,14.80
2022-08-12T04:00:53.413Z,14.80
2022-08-12T04:03:39.263Z,14.70
2022-08-12T04:06:08.926Z,14.60
2022-08-12T04:08:36.228Z,14.60
2022-08-12T04:11:22.278Z,14.60
2022-08-12T04:13:50.352Z,14.60
2022-08-12T04:16:17.591Z,14.60
2022-08-12T04:18:44.512Z,14.60
2022-08-12T04:21:11.365Z,14.60
2022-08-12T04:23:48.256Z,14.70
2022-08-12T04:26:15.435Z,14.70
2022-08-12T04:28:43.212Z,14.70
2022-08-12T04:31:10.177Z,14.60
2022-08-12T04:33:36.908Z,14.60
2022-08-12T04:36:03.934Z,14.50
2022-08-12T04:38:30.741Z,14.50
2022-08-12T04:40:57.889Z,14.40
2022-08-12T04:44:00.206Z,14.40
2022-08-12T04:46:12.299Z,14.40
2022-08-12T04:48:39.165Z,14.50
2022-08-12T04:51:06.383Z,14.50
2022-08-12T04:53:33.307Z,14.50
2022-08-12T04:56:00.337Z,14.60
2022-08-12T04:58:29.287Z,14.60
2022-08-12T05:00:56.862Z,14.70
2022-08-12T05:03:28.198Z,15.20
2022-08-12T05:05:58.127Z,14.90
2022-08-12T05:08:25.517Z,15.00
2022-08-12T05:10:52.353Z,15.10
2022-08-12T05:13:20.490Z,15.20
2022-08-12T05:15:53.004Z,15.30
2022-08-12T05:18:38.376Z,15.40
2022-08-12T05:21:07.682Z,15.50
2022-08-12T05:23:36.443Z,15.70
2022-08-12T05:26:03.408Z,15.80
2022-08-12T05:28:30.422Z,16.00
2022-08-12T05:30:59.309Z,16.20
2022-08-12T05:33:26.609Z,16.50
2022-08-12T05:35:53.591Z,16.80
2022-08-12T05:38:39.147Z,17.20
2022-08-12T05:41:07.009Z,17.60
2022-08-12T05:43:35.870Z,18.10
2022-08-12T05:46:02.717Z,18.60
2022-08-12T05:48:32.992Z,19.10
2022-08-12T05:50:59.749Z,19.60
2022-08-12T05:53:26.518Z,20.10
2022-08-12T05:55:54.004Z,20.60
2022-08-12T05:58:21.268Z,21.00
2022-08-12T06:00:48.063Z,21.40
2022-08-12T06:03:17.566Z,21.80
2022-08-12T06:05:55.208Z,22.30
2022-08-12T06:08:23.046Z,22.70
2022-08-12T06:10:50.297Z,23.10
2022-08-12T06:13:28.617Z,23.50
2022-08-12T06:16:05.113Z,23.90
2022-08-12T06:18:31.862Z,24.30
2022-08-12T06:21:02.004Z,24.60
2022-08-12T06:23:29.795Z,24.90
2022-08-12T06:25:56.855Z,25.20
2022-08-12T06:28:23.756Z,25.50
2022-08-12T06:31:14.798Z,25.70
2022-08-12T06:33:55.627Z,25.90
2022-08-12T06:36:25.251Z,26.10
2022-08-12T06:38:57.047Z,26.20
2022-08-12T06:42:30.680Z,26.10
2022-08-12T06:44:28.967Z,26.20
2022-08-12T06:46:58.366Z,26.40
2022-08-12T06:49:25.399Z,26.60
2022-08-12T06:51:56.643Z,26.70
2022-08-12T06:54:27.150Z,26.90
2022-08-12T06:58:06.852Z,27.20
2022-08-12T06:59:44.990Z,27.50
2022-08-12T07:02:12.383Z,27.80
2022-08-12T07:04:39.547Z,28.10
2022-08-12T07:07:10.362Z,28.40
2022-08-12T07:10:01.369Z,28.70
2022-08-12T07:12:28.227Z,28.90
2022-08-12T07:14:58.468Z,29.10
2022-08-12T07:17:26.083Z,29.20
2022-08-12T07:19:53.717Z,29.00
2022-08-12T07:22:23.293Z,28.80
2022-08-12T07:25:10.181Z,28.70
2022-08-12T07:27:40.818Z,28.40
2022-08-12T07:30:09.813Z,28.20
2022-08-12T07:32:36.769Z,28.00
2022-08-12T07:35:04.195Z,28.00
2022-08-12T07:37:31.401Z,27.80
2022-08-12T07:40:00.320Z,27.50
2022-08-12T07:42:29.606Z,27.40
2022-08-12T07:44:56.669Z,27.30
2022-08-12T07:47:24.131Z,27.30
2022-08-12T07:50:04.722Z,27.50
2022-08-12T07:52:39.573Z,27.70
2022-08-12T07:55:07.016Z,28.00
2022-08-12T07:57:34.912Z,28.00
2022-08-12T08:00:03.547Z,28.20
2022-08-12T08:02:33.632Z,28.30
2022-08-12T08:05:00.601Z,28.50
2022-08-12T08:07:30.436Z,28.40
2022-08-12T08:09:59.205Z,28.50
2022-08-12T08:12:47.833Z,28.70
2022-08-12T08:15:15.701Z,28.50
2022-08-12T08:18:02.834Z,28.30
2022-08-12T08:20:33.906Z,28.30
2022-08-12T08:23:06.202Z,28.30
2022-08-12T08:25:36.006Z,28.40
2022-08-12T08:28:05.535Z,28.60
2022-08-12T08:30:33.209Z,28.50
2022-08-12T08:33:00.131Z,28.30
2022-08-12T08:35:31.246Z,28.20
2022-08-12T08:38:14.864Z,28.30
2022-08-12T08:41:13.288Z,28.60
2022-08-12T08:44:01.503Z,28.80
2022-08-12T08:46:28.450Z,29.00
2022-08-12T08:48:59.051Z,29.10
2022-08-12T08:51:26.341Z,29.00
2022-08-12T08:53:56.653Z,29.10
2022-08-12T08:56:23.439Z,29.30
2022-08-12T08:58:50.200Z,29.30
2022-08-12T09:01:22.443Z,29.20
2022-08-12T09:05:07.153Z,28.80
2022-08-12T09:06:37.727Z,28.30
2022-08-12T09:09:13.041Z,27.70
2022-08-12T09:12:10.525Z,27.30
2022-08-12T09:14:51.415Z,26.90
2022-08-12T09:17:22.228Z,26.70
2022-08-12T09:19:55.096Z,26.70
2022-08-12T09:22:22.515Z,26.50
2022-08-12T09:24:55.563Z,26.20
2022-08-12T09:28:03.457Z,26.00
2022-08-12T09:30:15.876Z,25.70
2022-08-12T09:33:04.752Z,25.60
2022-08-12T09:35:43.001Z,25.60
2022-08-12T09:38:29.904Z,25.50
2022-08-12T09:42:08.824Z,25.40
2022-08-12T09:44:05.901Z,25.40
2022-08-12T09:46:34.602Z,25.40
2022-08-12T09:49:04.101Z,25.40
2022-08-12T09:51:44.523Z,25.40
2022-08-12T09:54:34.394Z,25.40
2022-08-12T09:57:03.758Z,25.60
2022-08-12T10:00:15.014Z,26.30
2022-08-12T10:02:45.163Z,26.90
2022-08-12T10:05:17.525Z,27.40
2022-08-12T10:07:44.909Z,27.80
2022-08-12T10:10:24.488Z,27.80
2022-08-12T10:13:12.466Z,27.70
2022-08-12T10:16:03.077Z,27.80
2022-08-12T10:18:32.804Z,27.90
2022-08-12T10:21:09.445Z,28.30
2022-08-12T10:23:40.475Z,28.60
2022-08-12T10:26:37.976Z,28.80
2022-08-12T10:30:38.109Z,29.10
2022-08-12T10:32:22.296Z,29.30
2022-08-12T10:35:03.804Z,29.20
2022-08-12T10:38:37.562Z,29.20
2022-08-12T10:40:20.599Z,29.10
2022-08-12T10:43:10.744Z,28.70
2022-08-12T10:45:43.753Z,28.40
2022-08-12T10:48:21.790Z,28.40
2022-08-12T10:51:01.740Z,28.70
2022-08-12T10:53:45.945Z,28.80
2022-08-12T10:56:17.595Z,29.00
2022-08-12T10:58:47.186Z,29.40
2022-08-12T11:01:50.440Z,29.70
2022-08-12T11:04:27.267Z,29.80
2022-08-12T11:07:09.185Z,29.60
2022-08-12T11:09:41.933Z,29.20
2022-08-12T11:12:56.115Z,29.00
2022-08-12T11:15:19.145Z,29.10
2022-08-12T11:17:54.039Z,29.30
2022-08-12T11:20:30.518Z,29.20
2022-08-12T11:23:03.994Z,29.10
2022-08-12T11:25:56.848Z,29.20
2022-08-12T11:28:34.685Z,29.40
2022-08-12T11:31:02.931Z,29.40
2022-08-12T11:34:05.100Z,29.30
2022-08-12T11:36:17.021Z,29.10
2022-08-12T11:38:43.899Z,28.80
2022-08-12T11:41:31.032Z,28.90
2022-08-12T11:44:29.112Z,29.10
2022-08-12T11:46:50.924Z,29.50
2022-08-12T11:49:20.443Z,29.60
2022-08-12T11:51:58.013Z,29.50
2022-08-12T11:54:24.822Z,29.60
2022-08-12T11:56:59.719Z,29.70
2022-08-12T12:02:04.898Z,30.00
2022-08-12T12:02:20.176Z,29.90
2022-08-12T12:04:52.128Z,29.40
2022-08-12T12:07:22.726Z,29.10
2022-08-12T12:10:09.703Z,29.00
2022-08-12T12:12:37.993Z,29.20
2022-08-12T12:15:09.527Z,29.50
2022-08-12T12:17:38.436Z,29.80
2022-08-12T12:20:09.955Z,30.20
2022-08-12T12:22:39.223Z,30.60
2022-08-12T12:25:12.598Z,31.10
2022-08-12T12:28:05.790Z,31.30
2022-08-12T12:30:34.844Z,31.60
2022-08-12T12:33:01.776Z,31.70
2022-08-12T12:36:18.270Z,31.80
2022-08-12T12:38:16.060Z,32.10
2022-08-12T12:40:44.748Z,32.00
2022-08-12T12:43:12.898Z,32.00
2022-08-12T12:45:44.420Z,31.70
2022-08-12T12:48:14.994Z,31.00
2022-08-12T12:51:12.486Z,30.00
2022-08-12T12:54:06.949Z,29.20
2022-08-12T12:56:34.598Z,28.60
2022-08-12T12:59:03.775Z,28.30
2022-08-12T13:01:38.304Z,28.30
2022-08-12T13:04:12.137Z,28.40
2022-08-12T13:06:41.236Z,28.50
2022-08-12T13:09:12.430Z,28.90
2022-08-12T13:11:42.073Z,29.20
2022-08-12T13:14:28.925Z,29.10
2022-08-12T13:17:02.715Z,28.80
2022-08-12T13:19:38.743Z,28.60
2022-08-12T13:22:18.516Z,28.40
2022-08-12T13:24:46.453Z,28.00
2022-08-12T13:27:20.723Z,27.60
2022-08-12T13:29:48.896Z,27.40
2022-08-12T13:32:28.078Z,27.20
2022-08-12T13:35:04.574Z,27.10
2022-08-12T13:37:54.491Z,27.30
2022-08-12T13:40:26.599Z,28.00
2022-08-12T13:42:57.627Z,28.80
2022-08-12T13:45:29.335Z,29.60
2022-08-12T13:47:57.768Z,30.40
2022-08-12T13:50:32.441Z,31.00
2022-08-12T13:53:01.316Z,31.80
2022-08-12T13:55:49.810Z,32.40
2022-08-12T13:58:27.152Z,32.30
2022-08-12T14:01:03.946Z,31.50
2022-08-12T14:03:50.645Z,30.70
2022-08-12T14:06:18.866Z,29.60
2022-08-12T14:08:45.656Z,28.70
2022-08-12T14:11:18.225Z,28.10
2022-08-12T14:14:05.731Z,27.50
2022-08-12T14:16:47.032Z,27.10
2022-08-12T14:19:21.785Z,26.70
2022-08-12T14:21:59.847Z,26.40
2022-08-12T14:24:31.537Z,26.30
2022-08-12T14:27:01.803Z,26.10
2022-08-12T14:29:38.252Z,26.10
2022-08-12T14:32:17.733Z,26.20
2022-08-12T14:34:46.959Z,26.50
2022-08-12T14:37:57.912Z,26.70
2022-08-12T14:40:01.105Z,27.20
2022-08-12T14:42:28.476Z,28.00
2022-08-12T14:44:59.885Z,28.50
2022-08-12T14:47:35.111Z,29.20
2022-08-12T14:50:57.570Z,29.50
2022-08-12T14:58:32.110Z,28.60
2022-08-12T15:01:19.739Z,28.20
2022-08-12T15:03:57.005Z,27.80
2022-08-12T15:06:44.167Z,27.30
2022-08-12T15:09:14.032Z,26.90
2022-08-12T15:11:55.751Z,26.70
2022-08-12T15:14:30.513Z,26.50
2022-08-12T15:17:00.631Z,26.40
2022-08-12T15:20:27.733Z,26.30
2022-08-12T15:22:37.407Z,26.30
2022-08-12T15:25:07.294Z,26.30
2022-08-12T15:28:05.485Z,26.30
2022-08-12T15:30:30.601Z,26.30
2022-08-12T15:32:57.599Z,26.40
2022-08-12T15:35:27.472Z,26.60
2022-08-12T15:38:09.600Z,26.70
2022-08-12T15:40:48.350Z,26.80
2022-08-12T15:43:27.351Z,26.90
2022-08-12T15:46:04.743Z,27.00
2022-08-12T15:48:32.747Z,27.00
2022-08-12T15:51:00.377Z,27.10
2022-08-12T15:54:05.508Z,27.20
2022-08-12T15:56:54.752Z,27.30
2022-08-12T15:59:51.487Z,27.30
2022-08-12T16:02:08.743Z,27.20
2022-08-12T16:04:36.346Z,27.10
2022-08-12T16:07:09.501Z,26.90
2022-08-12T16:10:04.926Z,26.60
2022-08-12T16:12:25.771Z,26.30
2022-08-12T16:14:54.993Z,26.10
2022-08-12T16:17:25.941Z,26.10
2022-08-12T16:20:11.670Z,26.00
2022-08-12T16:22:39.139Z,25.80
2022-08-12T16:25:07.077Z,25.70
2022-08-12T16:27:38.431Z,25.60
2022-08-12T16:30:06.053Z,25.60
2022-08-12T16:32:36.049Z,25.50
2022-08-12T16:35:08.162Z,25.50
2022-08-12T16:38:25.014Z,25.50
2022-08-12T16:40:31.845Z,25.40
2022-08-12T16:43:12.885Z,25.30
2022-08-12T16:46:05.532Z,25.20
2022-08-12T16:48:35.701Z,25.20
2022-08-12T16:51:10.570Z,25.20
2022-08-12T16:53:44.141Z,25.20
2022-08-12T16:56:15.637Z,25.30
2022-08-12T16:58:43.936Z,25.30
2022-08-12T17:01:15.534Z,25.40
2022-08-12T17:03:52.118Z,25.40
2022-08-12T17:06:22.463Z,25.50
2022-08-12T17:09:03.528Z,25.50
2022-08-12T17:11:38.938Z,25.50
2022-08-12T17:14:08.866Z,25.40
2022-08-12T17:16:37.403Z,25.40
2022-08-12T17:19:09.491Z,25.40
2022-08-12T17:21:41.110Z,25.40
2022-08-12T17:24:22.342Z,25.50
2022-08-12T17:26:57.140Z,25.40
2022-08-12T17:30:01.299Z,25.30
2022-08-12T17:32:14.219Z,25.20
2022-08-12T17:35:00.112Z,25.00
2022-08-12T17:37:27.395Z,25.00
2022-08-12T17:40:14.983Z,24.80
2022-08-12T17:42:47.311Z,24.70
2022-08-12T17:45:19.406Z,24.60
2022-08-12T17:48:05.002Z,24.60
2022-08-12T17:50:36.857Z,24.50
2022-08-12T17:53:05.463Z,24.50
2022-08-12T17:55:43.620Z,24.40
2022-08-12T17:58:14.439Z,24.20
2022-08-12T18:00:42.675Z,24.10
2022-08-12T18:03:09.721Z,24.00
2022-08-12T18:05:55.774Z,23.80
2022-08-12T18:08:33.267Z,23.70
2022-08-12T18:11:38.348Z,23.60
2022-08-12T18:14:05.934Z,23.50
2022-08-12T18:16:34.530Z,23.30
2022-08-12T18:19:02.276Z,23.20
2022-08-12T18:22:01.847Z,23.00
2022-08-12T18:24:21.575Z,22.90
2022-08-12T18:26:49.133Z,22.80
2022-08-12T18:29:16.371Z,22.70
2022-08-12T18:31:44.208Z,22.60
2022-08-12T18:34:26.840Z,22.50
2022-08-12T18:36:55.613Z,22.40
2022-08-12T18:39:22.667Z,22.30
2022-08-12T18:41:49.513Z,22.20
2022-08-12T18:44:16.303Z,22.10
2022-08-12T18:46:55.559Z,22.00
2022-08-12T18:49:28.587Z,21.90
2022-08-12T18:52:02.636Z,21.70
2022-08-12T18:54:35.936Z,21.70
2022-08-12T18:57:16.294Z,21.60
2022-08-12T19:00:00.076Z,21.50
2022-08-12T19:02:33.920Z,21.40
2022-08-12T19:05:10.788Z,21.30
2022-08-12T19:07:57.928Z,21.20
2022-08-12T19:10:29.492Z,21.10
2022-08-12T19:13:23.483Z,21.10
2022-08-12T19:15:58.118Z,21.00
2022-08-12T19:18:30.009Z,21.00
2022-08-12T19:21:06.447Z,20.90
2022-08-12T19:23:39.146Z,20.80
2022-08-12T19:26:12.194Z,20.70
2022-08-12T19:28:39.434Z,20.60
2022-08-12T19:31:58.372Z,20.60
2022-08-12T19:37:26.794Z,20.40
2022-08-12T19:40:08.755Z,20.40
2022-08-12T19:43:00.682Z,20.30
2022-08-12T19:45:43.906Z,20.20
2022-08-12T19:48:17.854Z,20.20
2022-08-12T19:50:45.417Z,20.10
2022-08-12T19:53:18.670Z,20.00
2022-08-12T19:55:50.741Z,20.00
2022-08-12T19:58:18.830Z,19.90
2022-08-12T20:00:52.628Z,19.80
2022-08-12T20:03:39.114Z,19.80
2022-08-12T20:06:13.943Z,19.80
2022-08-12T20:08:48.924Z,19.70
2022-08-12T20:12:09.195Z,19.60
2022-08-12T20:14:09.250Z,19.60
2022-08-12T20:16:57.143Z,19.60
2022-08-12T20:19:52.390Z,19.60
2022-08-12T20:22:31.368Z,19.50
2022-08-12T20:25:01.319Z,19.50
2022-08-12T20:28:03.423Z,19.40
2022-08-12T20:30:38.123Z,19.20
2022-08-12T20:33:16.669Z,19.10
2022-08-12T20:36:13.915Z,19.00
2022-08-12T20:38:32.466Z,19.00
2022-08-12T20:41:00.207Z,19.00
2022-08-12T20:43:28.354Z,19.00
2022-08-12T20:45:58.444Z,19.00
2022-08-12T20:48:28.648Z,18.90
2022-08-12T20:50:57.521Z,18.90
2022-08-12T20:53:28.916Z,18.80
2022-08-12T20:56:22.343Z,18.70
2022-08-12T20:58:59.994Z,18.60
2022-08-12T21:01:29.205Z,18.60
2022-08-12T21:04:32.526Z,18.50
2022-08-12T21:07:04.729Z,18.40
2022-08-12T21:09:44.176Z,18.30
2022-08-12T21:12:28.617Z,18.30
2022-08-12T21:15:23.018Z,18.30
2022-08-12T21:18:11.679Z,18.20
2022-08-12T21:20:54.755Z,18.20
2022-08-12T21:23:22.587Z,18.10
2022-08-12T21:25:52.640Z,18.00
2022-08-12T21:28:21.111Z,18.00
2022-08-12T21:31:11.298Z,17.90
2022-08-12T21:33:58.344Z,17.90
2022-08-12T21:36:34.516Z,17.80
2022-08-12T21:39:19.181Z,17.80
2022-08-12T21:41:51.047Z,17.70
2022-08-12T21:44:24.672Z,17.70
2022-08-12T21:47:19.616Z,17.70
2022-08-12T21:50:02.841Z,17.60
2022-08-12T21:52:35.614Z,17.50
2022-08-12T21:55:08.636Z,17.40
2022-08-12T21:57:51.352Z,17.30
2022-08-12T22:00:33.031Z,17.30
2022-08-12T22:04:01.431Z,17.20
2022-08-12T22:06:30.828Z,17.20
2022-08-12T22:09:08.987Z,17.10
2022-08-12T22:11:43.833Z,16.90
2022-08-12T22:14:21.426Z,16.90
2022-08-12T22:16:49.464Z,16.90
2022-08-12T22:19:19.310Z,16.80
2022-08-12T22:21:52.473Z,16.80
2022-08-12T22:24:26.468Z,16.70
2022-08-12T22:27:18.017Z,16.70
2022-08-12T22:30:16.590Z,16.70
2022-08-12T22:32:55.088Z,16.70
2022-08-12T22:35:55.764Z,16.70
2022-08-12T22:38:26.419Z,16.60
2022-08-12T22:41:00.712Z,16.60
2022-08-12T22:44:00.406Z,16.60
2022-08-12T22:46:52.045Z,16.60
2022-08-12T22:49:22.723Z,16.50
2022-08-12T22:52:06.885Z,16.50
2022-08-12T22:54:37.653Z,16.50
2022-08-12T22:57:13.982Z,16.50
2022-08-12T22:59:55.232Z,16.50
2022-08-12T23:02:28.973Z,16.50
2022-08-12T23:04:57.742Z,16.50
2022-08-12T23:07:24.704Z,16.50
2022-08-12T23:09:51.666Z,16.50
2022-08-12T23:12:46.950Z,16.50
2022-08-12T23:15:15.770Z,16.50
2022-08-12T23:17:43.394Z,16.50
2022-08-12T23:20:13.067Z,16.50
2022-08-12T23:22:40.123Z,16.40
2022-08-12T23:25:18.963Z,16.40
2022-08-12T23:28:30.177Z,16.40
2022-08-12T23:31:04.206Z,16.20
2022-08-12T23:34:01.767Z,16.20
2022-08-12T23:36:29.735Z,16.10
2022-08-12T23:40:15.795Z,16.20
2022-08-12T23:41:56.034Z,16.20
2022-08-12T23:44:42.582Z,16.10
2022-08-12T23:47:11.638Z,16.00
2022-08-12T23:49:58.348Z,15.90
2022-08-12T23:52:28.715Z,15.80
2022-08-12T23:55:24.570Z,15.80
2022-08-12T23:58:22.440Z,15.70
